Branscomb, California
Current Conditions -  °F | °C
As of 12:56 AM on Monday 24 Nov 2014 (Local Time) from KUKI Reporting Station
Clear Clear  
Wind Chill: 41°   Ceiling: Unl
Heat Index: 41°   Visibility: 8mi
Dew Point: 38°   Wind: 0mph
Humidity: 89%   Direction: NA
Pressure: 30.37"   Gusts: NA
Location:  39.65°N, 123.62°W
Report Text: KUKI 240856Z AUTO 00000KT 8SM CLR 05/03 A3037 RMK AO2 SLP283 T00500033 51008
Loading
Personal Weather Stations






























Interactive Weather Map New forecast layout! Learn more

10-Day Weather Forecast

Advertisements
Track Severe Weather on mobile